Time;durP1;ratioP1;P1;durP2;ratioP2;P2;SDS_P1;SDS_P2;PMS_P1;PMS_P2;Temp;Humidity;BMP_temperature;BMP_pressure;BME280_temperature;BME280_humidity;BME280_pressure;Samples;Min_cycle;Max_cycle;Signal;HPM_P1;HPM_P2
2023/03/04 00:02:37;;;;;;;16.70;9.30;;;;;5.00;102170.00;;;;9651833;30;20666;-80
2023/03/04 00:07:40;;;;;;;15.07;9.10;;;;;5.00;102167.00;;;;9639863;30;20220;-80
2023/03/04 00:12:42;;;;;;;15.83;9.63;;;;;5.00;102168.00;;;;9651153;30;20205;-80
2023/03/04 00:17:45;;;;;;;20.63;10.27;;;;;5.00;102171.00;;;;9663000;30;20657;-81
2023/03/04 00:22:46;;;;;;;15.53;9.90;;;;;5.00;102170.00;;;;9653032;30;20670;-79
2023/03/04 00:27:49;;;;;;;15.73;9.60;;;;;5.00;102167.00;;;;9648463;30;20225;-80
2023/03/04 00:32:51;;;;;;;23.60;10.20;;;;;5.00;102167.00;;;;9638227;30;20698;-80
2023/03/04 00:37:53;;;;;;;26.37;9.33;;;;;4.90;102157.00;;;;9654581;30;20193;-80
2023/03/04 00:42:54;;;;;;;21.80;8.57;;;;;4.90;102156.00;;;;9653791;30;20219;-80
2023/03/04 00:47:57;;;;;;;19.63;9.03;;;;;4.90;102162.00;;;;9629100;30;20243;-81
2023/03/04 00:52:59;;;;;;;20.67;7.77;;;;;4.90;102160.00;;;;9638885;30;20197;-80
2023/03/04 00:58:01;;;;;;;14.83;8.07;;;;;4.90;102160.00;;;;9630816;30;20233;-80
2023/03/04 01:03:03;;;;;;;17.93;8.27;;;;;4.90;102163.00;;;;9643539;30;20243;-80
2023/03/04 01:08:06;;;;;;;17.47;7.43;;;;;4.90;102161.00;;;;9649428;30;20229;-80
2023/03/04 01:13:08;;;;;;;19.53;8.03;;;;;4.90;102165.00;;;;9631762;30;20283;-81
2023/03/04 01:18:10;;;;;;;20.20;8.13;;;;;4.90;102164.00;;;;9622661;30;20692;-80
2023/03/04 01:23:12;;;;;;;13.60;6.27;;;;;4.90;102162.00;;;;9633246;30;20264;-80
2023/03/04 01:28:15;;;;;;;16.97;7.33;;;;;4.90;102153.00;;;;9617602;30;20228;-81
2023/03/04 01:33:17;;;;;;;13.20;6.37;;;;;4.90;102153.00;;;;9640258;30;20219;-80
2023/03/04 01:38:19;;;;;;;10.17;6.23;;;;;4.90;102142.00;;;;9647758;30;20215;-80
2023/03/04 01:43:24;;;;;;;24.77;7.90;;;;;4.80;102144.00;;;;9636670;30;20681;-80
2023/03/04 01:48:35;;;;;;;20.13;7.87;;;;;4.80;102136.00;;;;9614781;30;20216;-80
2023/03/04 01:53:38;;;;;;;21.60;7.13;;;;;4.80;102126.00;;;;9628181;30;20205;-79
2023/03/04 01:58:41;;;;;;;21.20;6.67;;;;;4.80;102116.00;;;;9623209;30;20248;-80
2023/03/04 02:03:44;;;;;;;19.83;6.80;;;;;4.80;102111.00;;;;9633808;30;20216;-79
2023/03/04 02:08:46;;;;;;;17.93;6.17;;;;;4.90;102108.00;;;;9615059;30;20247;-79
2023/03/04 02:13:48;;;;;;;14.13;6.03;;;;;4.80;102094.00;;;;9626199;30;20617;-79
2023/03/04 02:18:52;;;;;;;16.37;6.03;;;;;4.80;102101.00;;;;9631525;30;20207;-79
2023/03/04 02:24:24;;;;;;;16.07;5.50;;;;;4.80;102086.00;;;;9650345;30;20215;-79
2023/03/04 02:29:27;;;;;;;12.50;5.70;;;;;4.90;102079.00;;;;9656258;30;20208;-78
2023/03/04 02:34:35;;;;;;;16.00;5.93;;;;;4.90;102079.00;;;;9627240;30;20208;-79
2023/03/04 02:39:46;;;;;;;16.87;6.37;;;;;4.90;102070.00;;;;9636820;30;20204;-78
2023/03/04 02:44:49;;;;;;;17.77;6.20;;;;;4.80;102064.00;;;;9643969;30;20220;-79
2023/03/04 02:49:53;;;;;;;16.57;6.07;;;;;4.90;102071.00;;;;9643015;30;20274;-78
2023/03/04 02:54:56;;;;;;;17.47;7.53;;;;;4.90;102063.00;;;;9646350;30;20290;-79
2023/03/04 02:59:59;;;;;;;19.67;6.37;;;;;5.00;102069.00;;;;9622293;30;20275;-79
2023/03/04 03:05:02;;;;;;;19.00;6.30;;;;;5.00;102061.00;;;;9642620;30;20224;-79
2023/03/04 03:10:04;;;;;;;16.53;5.43;;;;;5.00;102046.00;;;;9621557;30;20275;-79
2023/03/04 03:15:07;;;;;;;17.10;5.87;;;;;5.00;102054.00;;;;9647719;30;20204;-79
2023/03/04 03:20:11;;;;;;;14.70;5.53;;;;;5.00;102061.00;;;;9637433;30;20226;-80
2023/03/04 03:25:15;;;;;;;18.63;5.53;;;;;5.00;102062.00;;;;9621825;30;20303;-79
2023/03/04 03:30:17;;;;;;;16.80;6.47;;;;;5.00;102066.00;;;;9635852;30;20261;-79
2023/03/04 03:35:19;;;;;;;24.37;6.07;;;;;5.00;102067.00;;;;9620321;30;20271;-79
2023/03/04 03:40:22;;;;;;;14.30;6.20;;;;;5.00;102064.00;;;;9636158;30;20216;-79
2023/03/04 03:45:24;;;;;;;16.17;7.20;;;;;5.00;102066.00;;;;9631389;30;20235;-79
2023/03/04 03:50:27;;;;;;;18.30;7.47;;;;;5.00;102067.00;;;;9638533;30;20212;-79
2023/03/04 03:55:29;;;;;;;15.23;7.57;;;;;5.00;102069.00;;;;9621407;30;20212;-79
2023/03/04 04:00:31;;;;;;;17.80;7.40;;;;;5.00;102071.00;;;;9642622;30;20244;-79
2023/03/04 04:05:33;;;;;;;17.87;7.80;;;;;5.00;102071.00;;;;9636092;30;20228;-79
2023/03/04 04:10:36;;;;;;;23.20;7.27;;;;;5.00;102074.00;;;;9643549;30;20200;-79
2023/03/04 04:15:38;;;;;;;24.37;8.83;;;;;5.00;102076.00;;;;9634031;30;20219;-79
2023/03/04 04:20:40;;;;;;;27.93;7.73;;;;;5.00;102071.00;;;;9635362;30;20204;-79
2023/03/04 04:25:42;;;;;;;19.53;6.87;;;;;5.00;102073.00;;;;9610486;30;20228;-79
2023/03/04 04:30:44;;;;;;;17.13;6.60;;;;;5.00;102074.00;;;;9635511;30;20263;-79
2023/03/04 04:35:46;;;;;;;15.10;7.53;;;;;5.00;102075.00;;;;9636641;30;20684;-79
2023/03/04 04:40:48;;;;;;;18.60;8.43;;;;;5.00;102064.00;;;;9635394;30;20212;-79
2023/03/04 04:45:51;;;;;;;21.17;7.73;;;;;5.00;102078.00;;;;9635445;30;20218;-79
2023/03/04 04:50:55;;;;;;;20.33;8.93;;;;;5.00;102076.00;;;;9647861;30;20251;-79
2023/03/04 04:55:56;;;;;;;22.13;8.77;;;;;5.00;102075.00;;;;9624300;30;20233;-79
2023/03/04 05:00:58;;;;;;;15.30;7.87;;;;;5.00;102073.00;;;;9635708;30;20247;-78
2023/03/04 05:06:01;;;;;;;22.40;9.13;;;;;5.00;102071.00;;;;9651884;30;20224;-79
2023/03/04 05:11:06;;;;;;;20.13;9.00;;;;;5.00;102073.00;;;;9645505;30;20212;-78
2023/03/04 05:16:08;;;;;;;19.10;9.00;;;;;5.00;102085.00;;;;9635150;30;20204;-80
2023/03/04 05:21:11;;;;;;;15.27;8.90;;;;;5.00;102084.00;;;;9608630;30;20266;-80
2023/03/04 05:26:15;;;;;;;20.53;9.40;;;;;5.00;102084.00;;;;9638089;30;20709;-79
2023/03/04 05:31:17;;;;;;;21.50;10.07;;;;;5.00;102076.00;;;;9636074;30;20196;-79
2023/03/04 05:36:19;;;;;;;15.03;8.03;;;;;5.00;102077.00;;;;9646840;30;21032;-79
2023/03/04 05:41:22;;;;;;;19.93;8.10;;;;;5.00;102072.00;;;;9616397;30;20271;-79
2023/03/04 05:46:24;;;;;;;17.30;7.47;;;;;5.00;102074.00;;;;9642030;30;20647;-79
2023/03/04 05:51:26;;;;;;;20.53;8.00;;;;;5.00;102080.00;;;;9627714;30;20223;-79
2023/03/04 05:56:29;;;;;;;13.77;7.10;;;;;5.10;102083.00;;;;9655032;30;20212;-79
2023/03/04 06:01:31;;;;;;;16.47;6.43;;;;;5.10;102081.00;;;;9634193;30;20240;-79
2023/03/04 06:06:33;;;;;;;11.13;5.83;;;;;5.00;102075.00;;;;9619858;30;20732;-79
2023/03/04 06:11:35;;;;;;;15.63;6.33;;;;;5.10;102074.00;;;;9617920;30;20642;-79
2023/03/04 06:16:37;;;;;;;17.37;5.77;;;;;5.10;102090.00;;;;9647131;30;20224;-79
2023/03/04 06:21:39;;;;;;;14.80;5.00;;;;;5.10;102097.00;;;;9646423;30;20219;-79
2023/03/04 06:26:41;;;;;;;12.80;5.10;;;;;5.10;102090.00;;;;9636040;30;20259;-79
2023/03/04 06:31:43;;;;;;;9.93;4.10;;;;;5.10;102105.00;;;;9658129;30;20589;-79
2023/03/04 06:36:45;;;;;;;12.10;4.13;;;;;5.20;102097.00;;;;9648085;30;20201;-80
2023/03/04 06:41:47;;;;;;;12.00;4.30;;;;;5.20;102112.00;;;;9640647;30;20271;-79
2023/03/04 06:46:49;;;;;;;13.03;3.40;;;;;5.20;102113.00;;;;9610102;30;20225;-79
2023/03/04 06:51:51;;;;;;;19.40;3.53;;;;;5.30;102114.00;;;;9634894;30;20232;-78
2023/03/04 06:56:53;;;;;;;14.00;3.50;;;;;5.30;102120.00;;;;9650593;30;21206;-79
2023/03/04 07:01:55;;;;;;;15.10;3.87;;;;;5.40;102129.00;;;;9639115;30;20259;-79
2023/03/04 07:06:57;;;;;;;10.13;3.10;;;;;5.40;102126.00;;;;9649774;30;20243;-79
2023/03/04 07:11:59;;;;;;;11.20;3.77;;;;;5.40;102133.00;;;;9649094;30;20216;-78
2023/03/04 07:17:02;;;;;;;13.67;3.20;;;;;5.50;102122.00;;;;9642846;30;20551;-79
2023/03/04 07:22:04;;;;;;;17.67;3.47;;;;;5.50;102132.00;;;;9624377;30;20220;-79
2023/03/04 07:27:06;;;;;;;15.00;3.20;;;;;5.60;102145.00;;;;9645183;30;20743;-79
2023/03/04 07:32:09;;;;;;;14.23;3.30;;;;;5.70;102148.00;;;;9636184;30;20536;-80
2023/03/04 07:37:11;;;;;;;12.43;2.97;;;;;5.70;102148.00;;;;9656663;30;20196;-80
2023/03/04 07:42:13;;;;;;;11.70;2.80;;;;;5.80;102142.00;;;;9656630;30;20240;-80
2023/03/04 07:47:16;;;;;;;15.50;4.27;;;;;5.90;102148.00;;;;9639404;30;20216;-80
2023/03/04 07:52:19;;;;;;;11.60;3.23;;;;;6.00;102150.00;;;;9653967;30;20200;-80
2023/03/04 07:57:21;;;;;;;12.70;3.00;;;;;6.10;102152.00;;;;9648428;30;20232;-79
2023/03/04 08:02:23;;;;;;;10.80;2.93;;;;;6.30;102154.00;;;;9635464;30;20319;-79
2023/03/04 08:07:25;;;;;;;11.47;2.73;;;;;6.40;102165.00;;;;9612524;30;20698;-80
2023/03/04 08:12:27;;;;;;;9.83;2.87;;;;;6.60;102173.00;;;;9640692;30;20757;-79
2023/03/04 08:17:29;;;;;;;12.73;3.63;;;;;6.70;102173.00;;;;9656270;30;20220;-80
2023/03/04 08:22:31;;;;;;;8.57;2.57;;;;;6.70;102181.00;;;;9618164;30;20315;-79
2023/03/04 08:27:33;;;;;;;8.07;2.57;;;;;6.60;102191.00;;;;9627322;30;20216;-79
2023/03/04 08:32:35;;;;;;;6.50;1.53;;;;;6.50;102191.00;;;;9641903;30;20215;-79
2023/03/04 08:37:38;;;;;;;8.57;2.10;;;;;6.50;102186.00;;;;9632112;30;20287;-80
2023/03/04 08:42:41;;;;;;;11.27;2.43;;;;;6.70;102186.00;;;;9631800;30;21081;-79
2023/03/04 08:47:43;;;;;;;8.23;1.83;;;;;7.30;102188.00;;;;9642341;30;20263;-79
2023/03/04 08:52:44;;;;;;;6.50;2.17;;;;;8.10;102185.00;;;;9647293;30;20299;-79
2023/03/04 08:57:46;;;;;;;8.83;2.17;;;;;8.60;102175.00;;;;9640770;30;20311;-80
2023/03/04 09:02:49;;;;;;;6.97;2.10;;;;;8.70;102183.00;;;;9623364;30;20299;-79
2023/03/04 09:07:51;;;;;;;11.20;2.50;;;;;8.40;102182.00;;;;9631395;30;20276;-80
2023/03/04 09:12:53;;;;;;;6.17;2.23;;;;;8.00;102183.00;;;;9612115;30;20311;-79
2023/03/04 09:17:57;;;;;;;9.77;2.73;;;;;7.30;102175.00;;;;9627941;30;20216;-80
2023/03/04 09:23:00;;;;;;;7.77;2.67;;;;;7.70;102185.00;;;;9639808;30;20208;-80
2023/03/04 09:28:02;;;;;;;5.40;2.30;;;;;9.20;102177.00;;;;9630267;30;20212;-81
2023/03/04 09:33:04;;;;;;;8.03;2.17;;;;;10.50;102172.00;;;;9628075;30;20239;-81
2023/03/04 09:38:06;;;;;;;4.87;1.70;;;;;10.30;102168.00;;;;9649425;30;20197;-80
2023/03/04 09:43:19;;;;;;;5.10;1.23;;;;;9.80;102161.00;;;;9630316;30;20255;-80
2023/03/04 09:48:25;;;;;;;6.77;1.40;;;;;9.50;102161.00;;;;9640777;30;20244;-81
2023/03/04 09:53:50;;;;;;;5.13;1.63;;;;;10.10;102164.00;;;;9619766;30;20311;-80
2023/03/04 09:59:12;;;;;;;7.40;1.90;;;;;10.90;102165.00;;;;9632638;30;20302;-79
2023/03/04 10:04:35;;;;;;;9.77;2.67;;;;;10.40;102165.00;;;;9626729;30;20287;-80
2023/03/04 10:09:46;;;;;;;7.00;3.40;;;;;9.20;102163.00;;;;9615316;30;20258;-78
2023/03/04 10:14:56;;;;;;;14.30;4.57;;;;;8.00;102162.00;;;;9604193;30;20220;-80
2023/03/04 10:20:17;;;;;;;13.03;4.07;;;;;7.90;102164.00;;;;9648573;30;20212;-79
2023/03/04 10:25:23;;;;;;;9.90;4.50;;;;;7.90;102156.00;;;;9636458;30;20196;-77
2023/03/04 10:31:00;;;;;;;9.20;4.73;;;;;7.60;102164.00;;;;9622942;30;20598;-78
2023/03/04 10:36:28;;;;;;;11.93;5.73;;;;;7.70;102155.00;;;;9597056;30;20280;-80
2023/03/04 10:41:30;;;;;;;11.87;5.80;;;;;8.20;102143.00;;;;9643445;30;20215;-78
2023/03/04 10:46:40;;;;;;;13.20;5.73;;;;;10.70;102155.00;;;;9654625;30;20219;-77
2023/03/04 10:52:14;;;;;;;10.80;5.40;;;;;10.20;102157.00;;;;9628833;30;20243;-77
2023/03/04 10:57:20;;;;;;;9.60;4.40;;;;;9.00;102159.00;;;;9622984;30;20736;-77
2023/03/04 11:02:33;;;;;;;13.30;4.60;;;;;8.30;102154.00;;;;9625016;30;20248;-77
2023/03/04 11:07:41;;;;;;;9.03;4.37;;;;;8.20;102145.00;;;;9646898;30;20219;-77
2023/03/04 11:13:01;;;;;;;8.27;3.60;;;;;8.10;102145.00;;;;9627543;30;20204;-78
2023/03/04 11:18:11;;;;;;;14.63;5.53;;;;;8.40;102132.00;;;;9644740;30;20306;-77
2023/03/04 11:23:17;;;;;;;11.10;5.97;;;;;8.60;102133.00;;;;9640148;30;20200;-77
2023/03/04 11:28:32;;;;;;;11.47;4.83;;;;;8.80;102111.00;;;;9624270;30;20217;-77
2023/03/04 11:33:55;;;;;;;15.73;5.00;;;;;9.10;102111.00;;;;9639249;30;20209;-77
2023/03/04 11:38:57;;;;;;;7.87;4.30;;;;;9.20;102118.00;;;;9633235;30;20903;-78
2023/03/04 11:44:00;;;;;;;9.00;4.60;;;;;9.20;102107.00;;;;9638044;30;20204;-77
2023/03/04 11:49:23;;;;;;;11.97;3.93;;;;;8.90;102101.00;;;;9640522;30;20240;-78
2023/03/04 11:55:16;;;;;;;13.00;4.13;;;;;9.30;102093.00;;;;9619941;30;20233;-78
2023/03/04 12:00:37;;;;;;;9.20;4.50;;;;;9.00;102098.00;;;;9598063;30;20247;-80
2023/03/04 12:06:06;;;;;;;11.03;4.73;;;;;8.90;102080.00;;;;9650840;30;20304;-77
2023/03/04 12:11:39;;;;;;;9.93;3.80;;;;;8.80;102075.00;;;;9619246;30;20205;-78
2023/03/04 12:17:31;;;;;;;8.67;4.80;;;;;8.80;102061.00;;;;9612014;30;20275;-80
2023/03/04 12:22:40;;;;;;;10.97;5.17;;;;;8.90;102060.00;;;;9625632;30;20839;-79
2023/03/04 12:27:45;;;;;;;10.30;4.30;;;;;8.80;102059.00;;;;9633674;30;20259;-79
2023/03/04 12:33:06;;;;;;;6.33;4.13;;;;;8.90;102056.00;;;;9639044;30;20993;-80
2023/03/04 12:38:18;;;;;;;9.77;4.37;;;;;9.80;102045.00;;;;9652802;30;20211;-79
2023/03/04 12:43:53;;;;;;;8.37;4.37;;;;;9.90;102046.00;;;;9601248;30;20201;-80
2023/03/04 12:49:25;;;;;;;8.03;4.80;;;;;9.50;102037.00;;;;9626928;30;20228;-77
2023/03/04 12:54:31;;;;;;;8.73;4.37;;;;;9.20;102027.00;;;;9612865;30;20216;-79
2023/03/04 12:59:55;;;;;;;4.80;3.37;;;;;9.00;102026.00;;;;9589513;30;20247;-80
2023/03/04 13:05:00;;;;;;;12.13;6.27;;;;;9.40;102014.00;;;;9616987;30;20204;-80
2023/03/04 13:10:13;;;;;;;9.40;3.80;;;;;9.70;102012.00;;;;9652592;30;20792;-80
2023/03/04 13:15:20;;;;;;;9.23;3.63;;;;;10.20;102008.00;;;;9637294;30;20201;-79
2023/03/04 13:20:37;;;;;;;7.73;3.00;;;;;10.30;102003.00;;;;9637335;30;20347;-78
2023/03/04 13:25:54;;;;;;;3.43;2.33;;;;;10.10;101998.00;;;;9577386;30;20587;-79
2023/03/04 13:30:58;;;;;;;3.73;2.50;;;;;9.70;101997.00;;;;9621693;30;20200;-79
2023/03/04 13:36:03;;;;;;;6.37;2.60;;;;;9.50;101988.00;;;;9636525;30;20196;-79
2023/03/04 13:41:08;;;;;;;4.97;3.00;;;;;9.10;101987.00;;;;9621421;30;20702;-79
2023/03/04 13:46:19;;;;;;;5.67;3.53;;;;;8.90;101973.00;;;;9616381;30;20615;-79
2023/03/04 13:51:41;;;;;;;5.43;2.93;;;;;8.70;101971.00;;;;9627095;30;20211;-79
2023/03/04 13:56:49;;;;;;;3.37;2.67;;;;;8.50;101976.00;;;;9687651;30;20191;-80
2023/03/04 14:02:15;;;;;;;5.43;2.90;;;;;8.30;101972.00;;;;9655319;30;20246;-79
2023/03/04 14:07:33;;;;;;;4.80;3.10;;;;;8.10;101969.00;;;;9660230;30;20228;-79
2023/03/04 14:12:43;;;;;;;4.37;2.67;;;;;7.90;101968.00;;;;9657594;30;20198;-80
2023/03/04 14:17:49;;;;;;;2.93;2.63;;;;;7.80;101959.00;;;;9654764;30;20205;-79
2023/03/04 14:22:51;;;;;;;4.43;2.80;;;;;7.90;101960.00;;;;9655344;30;20267;-79
2023/03/04 14:28:11;;;;;;;4.00;2.80;;;;;7.90;101956.00;;;;9624944;30;20225;-79
2023/03/04 14:33:18;;;;;;;2.60;2.40;;;;;8.00;101947.00;;;;9590327;30;20299;-80
2023/03/04 14:38:25;;;;;;;2.67;2.40;;;;;8.40;101939.00;;;;9642607;30;20661;-79
2023/03/04 14:43:29;;;;;;;2.43;2.23;;;;;8.50;101937.00;;;;9652813;30;20224;-79
2023/03/04 14:48:32;;;;;;;2.70;2.13;;;;;8.40;101925.00;;;;9628790;30;20239;-79
2023/03/04 14:53:34;;;;;;;3.47;2.20;;;;;8.40;101930.00;;;;9660077;30;20642;-80
2023/03/04 14:58:50;;;;;;;3.70;2.47;;;;;8.40;101921.00;;;;9657698;30;20600;-79
2023/03/04 15:04:03;;;;;;;3.17;2.30;;;;;8.50;101922.00;;;;9628272;30;20243;-79
2023/03/04 15:09:20;;;;;;;3.60;2.27;;;;;8.40;101916.00;;;;9653032;30;20246;-80
2023/03/04 15:14:49;;;;;;;3.00;2.30;;;;;8.30;101918.00;;;;9656439;30;20208;-79
2023/03/04 15:20:24;;;;;;;2.30;2.10;;;;;8.20;101903.00;;;;9662643;30;20204;-80
2023/03/04 15:25:26;;;;;;;3.43;2.63;;;;;8.10;101905.00;;;;9611749;30;20216;-79
2023/03/04 15:30:33;;;;;;;4.80;2.10;;;;;8.00;101921.00;;;;9636481;30;20732;-79
2023/03/04 15:35:35;;;;;;;4.33;1.80;;;;;8.10;101908.00;;;;9641223;30;20212;-80
2023/03/04 15:40:41;;;;;;;5.50;2.23;;;;;8.30;101905.00;;;;9633903;30;20201;-80
2023/03/04 15:45:44;;;;;;;9.10;2.77;;;;;8.30;101901.00;;;;9614901;30;20263;-80
2023/03/04 15:50:52;;;;;;;5.47;2.20;;;;;8.30;101904.00;;;;9606738;30;20221;-80
2023/03/04 15:55:54;;;;;;;3.83;2.10;;;;;8.20;101899.00;;;;9626045;30;20219;-80
2023/03/04 16:00:56;;;;;;;5.63;2.20;;;;;8.10;101896.00;;;;9618824;30;20300;-80
2023/03/04 16:05:59;;;;;;;6.03;2.67;;;;;7.90;101891.00;;;;9620625;30;20201;-79
2023/03/04 16:11:01;;;;;;;7.77;2.63;;;;;7.80;101882.00;;;;9634735;30;20216;-80
2023/03/04 16:16:03;;;;;;;5.97;2.97;;;;;7.70;101886.00;;;;9604905;30;20212;-79
2023/03/04 16:21:06;;;;;;;4.20;2.30;;;;;7.60;101883.00;;;;9631119;30;20670;-79
2023/03/04 16:26:28;;;;;;;9.70;3.07;;;;;7.60;101880.00;;;;9605219;30;20208;-79
2023/03/04 16:31:30;;;;;;;3.93;2.17;;;;;7.60;101890.00;;;;9638867;30;20942;-79
2023/03/04 16:36:34;;;;;;;5.67;2.33;;;;;7.60;101880.00;;;;9630292;30;20205;-80
2023/03/04 16:41:36;;;;;;;7.23;3.17;;;;;7.50;101882.00;;;;9639094;30;20322;-80
2023/03/04 16:46:39;;;;;;;2.73;1.70;;;;;7.50;101884.00;;;;9624618;30;20224;-79
2023/03/04 16:51:45;;;;;;;4.53;1.63;;;;;7.50;101876.00;;;;9637613;30;20240;-79
2023/03/04 16:56:47;;;;;;;4.37;1.57;;;;;7.40;101876.00;;;;9652673;30;20657;-79
2023/03/04 17:01:49;;;;;;;8.70;2.13;;;;;7.30;101872.00;;;;9624236;30;20236;-79
2023/03/04 17:06:51;;;;;;;5.83;2.20;;;;;7.30;101878.00;;;;9653389;30;20217;-79
2023/03/04 17:11:55;;;;;;;5.53;2.20;;;;;7.20;101878.00;;;;9638344;30;20582;-79
2023/03/04 17:17:01;;;;;;;6.70;2.30;;;;;7.10;101865.00;;;;9642871;30;20225;-79
2023/03/04 17:22:04;;;;;;;3.30;1.70;;;;;7.10;101871.00;;;;9648473;30;20288;-80
2023/03/04 17:27:05;;;;;;;5.60;2.43;;;;;7.00;101873.00;;;;9651521;30;20753;-80
2023/03/04 17:32:08;;;;;;;9.33;2.57;;;;;7.00;101871.00;;;;9606679;30;20873;-79
2023/03/04 17:37:10;;;;;;;5.73;2.30;;;;;7.00;101873.00;;;;9604329;30;20573;-80
2023/03/04 17:42:12;;;;;;;5.97;2.70;;;;;6.90;101873.00;;;;9650574;30;20714;-79
2023/03/04 17:47:14;;;;;;;5.37;2.90;;;;;6.90;101878.00;;;;9650896;30;20702;-80
2023/03/04 17:52:17;;;;;;;10.13;3.33;;;;;6.90;101874.00;;;;9651129;30;20235;-80
2023/03/04 17:57:19;;;;;;;5.47;2.53;;;;;6.90;101882.00;;;;9622641;30;20208;-80
2023/03/04 18:02:22;;;;;;;4.37;2.80;;;;;6.90;101879.00;;;;9658565;30;20625;-79
2023/03/04 18:07:24;;;;;;;7.00;3.37;;;;;6.90;101887.00;;;;9655660;30;20231;-79
2023/03/04 18:12:26;;;;;;;4.83;3.73;;;;;6.80;101877.00;;;;9648548;30;20315;-79
2023/03/04 18:17:28;;;;;;;4.43;3.33;;;;;6.80;101878.00;;;;9641778;30;20557;-79
2023/03/04 18:22:30;;;;;;;6.73;3.17;;;;;6.80;101886.00;;;;9616141;30;20212;-79
2023/03/04 18:27:32;;;;;;;8.03;3.23;;;;;6.80;101886.00;;;;9616227;30;20256;-79
2023/03/04 18:32:34;;;;;;;7.37;4.10;;;;;6.80;101887.00;;;;9650234;30;20208;-79
2023/03/04 18:37:52;;;;;;;6.33;2.97;;;;;6.80;101897.00;;;;9636240;30;20215;-80
2023/03/04 18:42:55;;;;;;;8.20;3.53;;;;;6.80;101893.00;;;;9624050;30;20235;-79
2023/03/04 18:47:58;;;;;;;7.93;3.87;;;;;6.80;101898.00;;;;9650630;30;20811;-80
2023/03/04 18:53:00;;;;;;;7.40;3.73;;;;;6.70;101882.00;;;;9637515;30;20197;-79
2023/03/04 18:58:03;;;;;;;7.90;4.53;;;;;6.70;101884.00;;;;9626404;30;20895;-79
2023/03/04 19:03:08;;;;;;;11.10;5.00;;;;;6.60;101888.00;;;;9607432;30;20232;-79
2023/03/04 19:08:10;;;;;;;8.50;5.20;;;;;6.60;101886.00;;;;9648114;30;20224;-80
2023/03/04 19:13:11;;;;;;;10.10;4.77;;;;;6.50;101887.00;;;;9627617;30;20212;-80
2023/03/04 19:18:13;;;;;;;12.03;4.90;;;;;6.40;101886.00;;;;9664040;30;20645;-79
2023/03/04 19:23:16;;;;;;;9.80;4.77;;;;;6.40;101880.00;;;;9655002;30;20300;-80
2023/03/04 19:28:18;;;;;;;12.30;5.30;;;;;6.30;101878.00;;;;9637056;30;20217;-80
2023/03/04 19:33:20;;;;;;;9.00;4.17;;;;;6.30;101883.00;;;;9606379;30;20214;-79
2023/03/04 19:38:22;;;;;;;14.07;4.90;;;;;6.30;101894.00;;;;9617259;30;20247;-79
2023/03/04 19:43:24;;;;;;;11.03;3.60;;;;;6.30;101889.00;;;;9640588;30;20215;-78
2023/03/04 19:48:26;;;;;;;9.90;3.70;;;;;6.30;101885.00;;;;9655781;30;20255;-79
2023/03/04 19:53:28;;;;;;;11.90;4.00;;;;;6.30;101887.00;;;;9622614;30;20221;-79
2023/03/04 19:58:30;;;;;;;17.27;3.83;;;;;6.30;101875.00;;;;9624249;30;20260;-80
2023/03/04 20:03:32;;;;;;;15.90;4.80;;;;;6.30;101874.00;;;;9640366;30;20214;-79
2023/03/04 20:08:34;;;;;;;10.00;3.90;;;;;6.30;101875.00;;;;9639865;30;20263;-79
2023/03/04 20:13:39;;;;;;;13.37;3.73;;;;;6.20;101874.00;;;;9639901;30;20200;-79
2023/03/04 20:18:41;;;;;;;7.43;3.10;;;;;6.20;101874.00;;;;9653982;30;20619;-79
2023/03/04 20:23:43;;;;;;;10.03;3.97;;;;;6.20;101876.00;;;;9590980;30;20217;-79
2023/03/04 20:28:45;;;;;;;12.13;4.80;;;;;6.20;101874.00;;;;9642328;30;20230;-79
2023/03/04 20:33:48;;;;;;;13.33;4.67;;;;;6.20;101876.00;;;;9634363;30;20563;-79
2023/03/04 20:38:51;;;;;;;11.57;4.50;;;;;6.20;101878.00;;;;9604366;30;20629;-79
2023/03/04 20:44:05;;;;;;;9.53;3.77;;;;;6.10;101881.00;;;;9658216;30;20541;-79
2023/03/04 20:49:10;;;;;;;10.10;3.90;;;;;6.10;101892.00;;;;9636828;30;20259;-79
2023/03/04 20:54:12;;;;;;;5.20;2.63;;;;;6.10;101887.00;;;;9615833;30;20209;-78
2023/03/04 20:59:14;;;;;;;5.23;2.90;;;;;6.10;101884.00;;;;9631201;30;20238;-78
2023/03/04 21:04:17;;;;;;;4.50;2.53;;;;;6.10;101877.00;;;;9650875;30;20208;-79
2023/03/04 21:09:21;;;;;;;4.97;2.70;;;;;6.00;101869.00;;;;9624307;30;20220;-79
2023/03/04 21:14:31;;;;;;;6.00;2.87;;;;;6.00;101874.00;;;;9637750;30;20205;-79
2023/03/04 21:19:40;;;;;;;7.57;3.53;;;;;6.00;101854.00;;;;9636836;30;20208;-80
2023/03/04 21:24:44;;;;;;;7.50;3.30;;;;;5.90;101860.00;;;;9650626;30;20257;-79
2023/03/04 21:29:48;;;;;;;6.93;3.47;;;;;5.90;101861.00;;;;9626277;30;20217;-80
2023/03/04 21:34:51;;;;;;;7.90;3.97;;;;;5.90;101851.00;;;;9622867;30;20212;-79
2023/03/04 21:39:54;;;;;;;10.00;4.53;;;;;5.90;101853.00;;;;9602746;30;20212;-79
2023/03/04 21:44:56;;;;;;;10.53;4.50;;;;;5.90;101854.00;;;;9616375;30;20213;-79
2023/03/04 21:49:58;;;;;;;9.67;4.17;;;;;5.80;101858.00;;;;9648487;30;20216;-79
2023/03/04 21:55:00;;;;;;;8.23;4.37;;;;;5.80;101851.00;;;;9637266;30;20687;-79
2023/03/04 22:00:03;;;;;;;9.63;4.00;;;;;5.80;101849.00;;;;9630910;30;20225;-79
2023/03/04 22:05:12;;;;;;;13.00;4.50;;;;;5.70;101848.00;;;;9615871;30;20674;-79
2023/03/04 22:10:14;;;;;;;10.70;3.40;;;;;5.70;101839.00;;;;9601631;30;20288;-79
2023/03/04 22:15:16;;;;;;;9.80;3.50;;;;;5.70;101828.00;;;;9610493;30;20239;-79
2023/03/04 22:20:19;;;;;;;10.63;4.27;;;;;5.70;101826.00;;;;9636066;30;20236;-79
2023/03/04 22:25:21;;;;;;;9.30;4.60;;;;;5.70;101820.00;;;;9622578;30;20197;-79
2023/03/04 22:30:23;;;;;;;11.83;4.07;;;;;5.70;101829.00;;;;9642582;30;20231;-79
2023/03/04 22:35:25;;;;;;;16.30;5.03;;;;;5.60;101826.00;;;;9613489;30;20209;-80
2023/03/04 22:40:27;;;;;;;7.90;4.63;;;;;5.60;101826.00;;;;9610456;30;20209;-79
2023/03/04 22:45:31;;;;;;;7.27;4.00;;;;;5.60;101820.00;;;;9655116;30;20201;-80
2023/03/04 22:50:34;;;;;;;7.47;3.93;;;;;5.50;101815.00;;;;9632632;30;20220;-79
2023/03/04 22:55:36;;;;;;;8.43;3.50;;;;;5.50;101811.00;;;;9628728;30;20208;-79
2023/03/04 23:00:38;;;;;;;5.13;3.00;;;;;5.40;101811.00;;;;9650458;30;20702;-79
2023/03/04 23:05:40;;;;;;;4.20;2.50;;;;;5.40;101803.00;;;;9681086;30;20237;-80
2023/03/04 23:10:42;;;;;;;8.67;3.67;;;;;5.40;101807.00;;;;9659063;30;20221;-79
2023/03/04 23:15:44;;;;;;;6.47;3.17;;;;;5.40;101799.00;;;;9618869;30;20197;-79
2023/03/04 23:20:47;;;;;;;5.83;3.40;;;;;5.30;101800.00;;;;9638218;30;20204;-79
2023/03/04 23:25:50;;;;;;;4.73;3.23;;;;;5.20;101797.00;;;;9620063;30;20224;-78
2023/03/04 23:30:52;;;;;;;6.63;2.50;;;;;5.20;101798.00;;;;9608686;30;20212;-80
2023/03/04 23:35:55;;;;;;;6.00;3.40;;;;;5.20;101796.00;;;;9640366;30;20232;-79
2023/03/04 23:40:57;;;;;;;4.73;3.20;;;;;5.20;101796.00;;;;9610226;30;20205;-79
2023/03/04 23:45:59;;;;;;;7.23;3.30;;;;;5.10;101795.00;;;;9620170;30;20224;-79
2023/03/04 23:51:01;;;;;;;5.47;3.17;;;;;5.10;101794.00;;;;9640945;30;20265;-79
2023/03/04 23:56:11;;;;;;;8.60;3.73;;;;;5.10;101781.00;;;;9660012;30;20217;-80
